createdAt,value
2019-03-28T17:44:34.557Z,14.20
2019-03-28T17:45:34.714Z,13.60
2019-03-28T17:47:28.883Z,11.70
2019-03-28T17:48:30.752Z,12.70
2019-03-28T17:50:23.614Z,13.00
2019-03-28T17:51:23.230Z,11.90
2019-03-28T17:52:23.224Z,15.50
2019-03-28T17:53:24.131Z,12.50
2019-03-28T17:54:23.217Z,13.20
2019-03-28T17:55:23.204Z,13.10
2019-03-28T17:56:23.200Z,14.40
2019-03-28T17:57:23.196Z,18.70
2019-03-28T17:58:23.188Z,16.40
2019-03-28T17:59:23.195Z,12.90
2019-03-28T18:00:23.178Z,14.30
2019-03-28T18:01:23.225Z,16.00
2019-03-28T18:02:23.166Z,14.40
2019-03-28T18:03:30.958Z,13.20
2019-03-28T18:04:23.514Z,11.10
2019-03-28T18:05:23.169Z,12.90
2019-03-28T18:06:23.181Z,16.00
2019-03-28T18:07:23.147Z,13.10
2019-03-28T18:08:23.130Z,17.10
2019-03-28T18:09:23.123Z,16.10
2019-03-28T18:10:23.119Z,15.90
2019-03-28T18:11:23.253Z,13.80
2019-03-28T18:12:23.109Z,15.30
2019-03-28T18:13:23.101Z,16.80
2019-03-28T18:14:23.713Z,16.80
2019-03-28T18:15:23.143Z,15.70
2019-03-28T18:16:23.287Z,15.50
2019-03-28T18:17:23.079Z,16.60
2019-03-28T18:18:23.073Z,12.50
2019-03-28T18:19:23.069Z,14.60
2019-03-28T18:20:23.141Z,16.20
2019-03-28T18:21:23.141Z,14.60
2019-03-28T18:22:23.051Z,18.50
2019-03-28T18:23:23.696Z,18.50
2019-03-28T18:24:23.041Z,17.30
2019-03-28T18:25:23.037Z,16.60
2019-03-28T18:26:23.833Z,16.20
2019-03-28T18:27:23.028Z,17.20
2019-03-28T18:28:23.759Z,20.30
2019-03-28T18:29:23.019Z,16.70
2019-03-28T18:30:23.011Z,17.40
2019-03-28T18:31:23.244Z,16.70
2019-03-28T18:32:22.998Z,16.70
2019-03-28T18:33:22.995Z,18.70
2019-03-28T18:34:23.200Z,17.50
2019-03-28T18:35:22.981Z,15.40
2019-03-28T18:36:23.296Z,17.10
2019-03-28T18:37:23.024Z,20.40
2019-03-28T18:38:22.973Z,15.90
2019-03-28T18:39:22.962Z,19.10
2019-03-28T18:40:22.956Z,21.20
2019-03-28T18:41:22.957Z,23.80
2019-03-28T18:42:23.147Z,20.50
2019-03-28T18:43:23.679Z,16.40
2019-03-28T18:44:22.938Z,18.50
2019-03-28T18:45:22.938Z,16.80
2019-03-28T18:46:22.946Z,14.00
2019-03-28T18:47:22.958Z,17.00
2019-03-28T18:48:30.849Z,19.20
2019-03-28T18:49:22.912Z,19.10
2019-03-28T18:50:22.907Z,15.40
2019-03-28T18:51:22.901Z,16.80
2019-03-28T18:52:23.745Z,13.80
2019-03-28T18:53:22.895Z,20.60
2019-03-28T18:54:23.004Z,14.10
2019-03-28T18:55:22.891Z,15.80
2019-03-28T18:57:55.991Z,16.50
2019-03-28T18:58:55.942Z,22.00
2019-03-28T19:00:50.336Z,21.10
2019-03-28T19:01:51.405Z,19.20
2019-03-28T19:03:45.679Z,16.00
2019-03-28T19:04:44.695Z,17.40
2019-03-28T19:06:39.537Z,17.00
2019-03-28T19:07:39.086Z,16.30
2019-03-28T19:09:33.488Z,18.40
2019-03-28T19:10:33.449Z,18.90
2019-03-28T19:12:27.874Z,17.20
2019-03-28T19:13:27.821Z,18.10
2019-03-28T19:15:22.320Z,18.20
2019-03-28T19:16:22.223Z,20.80
2019-03-28T19:18:16.550Z,20.60
2019-03-28T19:19:17.188Z,15.90
2019-03-28T19:21:10.913Z,20.30
2019-03-28T19:22:11.903Z,18.40
2019-03-28T19:24:05.275Z,19.90
2019-03-28T19:25:05.264Z,18.40
2019-03-28T19:27:00.671Z,20.50
2019-03-28T19:27:59.741Z,18.70
2019-03-28T19:29:54.020Z,20.10
2019-03-28T19:30:53.996Z,19.20
2019-03-28T19:32:48.915Z,18.30
2019-03-28T19:33:48.456Z,18.60
2019-03-28T19:35:43.725Z,20.40
2019-03-28T19:36:44.937Z,20.00
2019-03-28T19:38:37.116Z,19.60
2019-03-28T19:39:37.505Z,22.30
2019-03-28T19:41:31.877Z,18.60
2019-03-28T19:42:31.523Z,19.10
2019-03-28T19:44:26.053Z,16.80
2019-03-28T19:45:25.825Z,18.00
2019-03-28T19:47:20.180Z,18.70
2019-03-28T19:48:20.177Z,20.40
2019-03-28T19:50:15.636Z,20.30
2019-03-28T19:51:14.532Z,19.20
2019-03-28T19:53:11.588Z,18.50
2019-03-28T19:54:09.819Z,18.20
2019-03-28T19:56:03.586Z,22.30
2019-03-28T19:57:04.257Z,19.50
2019-03-28T19:58:59.311Z,22.90
2019-03-28T19:59:58.768Z,24.30
2019-03-28T20:01:52.085Z,23.50
2019-03-28T20:02:52.705Z,18.70
2019-03-28T20:04:46.862Z,20.80
2019-03-28T20:05:48.300Z,19.30
2019-03-28T20:07:40.832Z,20.90
2019-03-28T20:08:40.745Z,18.20
2019-03-28T20:10:35.154Z,22.30
2019-03-28T20:11:35.313Z,20.70
2019-03-28T20:13:31.033Z,21.60
2019-03-28T20:14:29.449Z,20.40
2019-03-28T20:16:25.883Z,17.30
2019-03-28T20:17:24.836Z,19.90
2019-03-28T20:19:19.039Z,21.00
2019-03-28T20:20:18.361Z,20.80
2019-03-28T20:22:12.725Z,26.50
2019-03-28T20:23:12.660Z,28.90
2019-03-28T20:25:07.278Z,26.10
2019-03-28T20:26:06.922Z,21.90
2019-03-28T20:28:01.356Z,20.30
2019-03-28T20:29:01.404Z,23.00
2019-03-28T20:30:55.979Z,24.90
2019-03-28T20:31:56.670Z,26.00
2019-03-28T20:33:52.197Z,18.80
2019-03-28T20:34:52.050Z,20.20
2019-03-28T20:36:11.714Z,22.80
2019-03-28T20:36:53.367Z,19.90
2019-03-28T20:37:52.051Z,23.70
2019-03-28T20:39:03.385Z,23.10
2019-03-28T20:39:52.023Z,24.90
2019-03-28T20:40:52.522Z,22.10
2019-03-28T20:41:52.485Z,22.00
2019-03-28T20:42:52.554Z,25.30
2019-03-28T20:43:53.044Z,29.50
2019-03-28T20:44:51.957Z,25.50
2019-03-28T20:45:52.533Z,24.20
2019-03-28T20:46:52.033Z,27.00
2019-03-28T20:47:52.482Z,22.80
2019-03-28T20:48:52.990Z,24.20
2019-03-28T20:49:53.008Z,21.50
2019-03-28T20:50:52.492Z,21.50
2019-03-28T20:51:53.381Z,19.00
2019-03-28T20:52:52.594Z,19.60
2019-03-28T20:53:52.496Z,23.60
2019-03-28T20:54:52.081Z,21.20
2019-03-28T20:55:52.165Z,20.90
2019-03-28T20:56:52.542Z,17.70
2019-03-28T20:57:52.493Z,22.60
2019-03-28T20:58:52.044Z,19.80
2019-03-28T20:59:52.615Z,18.80
2019-03-28T21:00:51.961Z,16.50
2019-03-28T21:01:52.488Z,17.00
2019-03-28T21:02:52.125Z,18.30
2019-03-28T21:03:51.838Z,19.10
2019-03-28T21:04:52.515Z,16.20
2019-03-28T21:05:51.865Z,20.70
2019-03-28T21:06:51.978Z,16.80
2019-03-28T21:07:51.797Z,18.60
2019-03-28T21:08:51.794Z,15.20
2019-03-28T21:09:51.784Z,17.30
2019-03-28T21:10:51.787Z,20.10
2019-03-28T21:11:52.039Z,16.60
2019-03-28T21:12:51.773Z,16.00
2019-03-28T21:13:51.785Z,15.30
2019-03-28T21:14:51.765Z,21.00
2019-03-28T21:15:51.806Z,25.10
2019-03-28T21:16:51.847Z,20.60
2019-03-28T21:17:51.778Z,18.60
2019-03-28T21:18:52.753Z,19.90
2019-03-28T21:19:51.729Z,19.00
2019-03-28T21:20:51.725Z,17.90
2019-03-28T21:21:51.724Z,16.40
2019-03-28T21:22:51.766Z,18.40
2019-03-28T21:23:51.706Z,16.60
2019-03-28T21:24:51.701Z,22.30
2019-03-28T21:25:51.708Z,19.80
2019-03-28T21:26:51.713Z,22.60
2019-03-28T21:27:51.753Z,24.30
2019-03-28T21:28:51.679Z,16.80
2019-03-28T21:29:51.780Z,19.10
2019-03-28T21:30:51.695Z,18.60
2019-03-28T21:31:52.054Z,19.60
2019-03-28T21:32:55.638Z,19.40
2019-03-28T21:33:54.690Z,20.70
2019-03-28T21:34:51.683Z,20.50
2019-03-28T21:35:51.685Z,16.70
2019-03-28T21:36:51.775Z,15.30
2019-03-28T21:37:51.660Z,16.60
2019-03-28T21:38:51.619Z,20.60
2019-03-28T21:39:51.615Z,17.90
2019-03-28T21:40:51.610Z,19.50
2019-03-28T21:41:51.602Z,15.80
2019-03-28T21:42:51.597Z,20.00
2019-03-28T21:43:51.592Z,16.90
2019-03-28T21:44:51.585Z,18.00
2019-03-28T21:45:51.581Z,19.40
2019-03-28T21:46:51.575Z,18.30
2019-03-28T21:47:51.572Z,18.70
2019-03-28T21:48:51.561Z,19.20
2019-03-28T21:49:51.557Z,23.00
2019-03-28T21:50:51.560Z,19.10
2019-03-28T21:51:51.547Z,16.50
2019-03-28T21:52:51.552Z,18.10
2019-03-28T21:53:51.538Z,19.70
2019-03-28T21:54:51.529Z,16.40
2019-03-28T21:55:55.476Z,15.60
2019-03-28T21:56:51.524Z,21.60
2019-03-28T21:57:51.516Z,21.40
2019-03-28T21:58:51.512Z,20.00
2019-03-28T21:59:51.507Z,20.40
2019-03-28T22:00:51.493Z,26.00
2019-03-28T22:01:51.492Z,35.40
2019-03-28T22:02:51.483Z,38.70
2019-03-28T22:03:51.759Z,24.20
2019-03-28T22:04:51.470Z,33.00
2019-03-28T22:05:51.463Z,24.20
2019-03-28T22:06:51.462Z,29.50
2019-03-28T22:07:51.453Z,26.50
2019-03-28T22:08:51.466Z,29.60
2019-03-28T22:09:51.446Z,26.60
2019-03-28T22:10:51.435Z,23.10
2019-03-28T22:11:51.431Z,22.50
2019-03-28T22:12:51.424Z,25.20
2019-03-28T22:13:51.424Z,20.40
2019-03-28T22:14:51.415Z,19.30
2019-03-28T22:15:51.417Z,20.00
2019-03-28T22:16:51.405Z,20.40
2019-03-28T22:17:51.400Z,18.40
2019-03-28T22:18:51.416Z,17.80
2019-03-28T22:19:51.817Z,18.90
2019-03-28T22:20:51.380Z,19.30
2019-03-28T22:21:51.373Z,18.50
2019-03-28T22:22:51.367Z,22.50
2019-03-28T22:23:51.369Z,19.80
2019-03-28T22:24:51.389Z,23.80
2019-03-28T22:25:51.355Z,23.60
2019-03-28T22:26:51.345Z,29.10
2019-03-28T22:27:51.340Z,24.40
2019-03-28T22:28:51.333Z,29.00
2019-03-28T22:29:51.327Z,24.70
2019-03-28T22:30:51.324Z,20.10
2019-03-28T22:31:51.316Z,19.80
2019-03-28T22:32:51.314Z,20.50
2019-03-28T22:33:51.304Z,20.00
2019-03-28T22:34:51.330Z,23.60
2019-03-28T22:35:51.882Z,18.20
2019-03-28T22:36:57.284Z,20.60
2019-03-28T22:37:51.277Z,19.80
2019-03-28T22:38:51.274Z,22.00
2019-03-28T22:39:51.267Z,21.60
2019-03-28T22:40:51.268Z,24.80
2019-03-28T22:41:51.257Z,22.80
2019-03-28T22:42:51.252Z,20.20
2019-03-28T22:43:51.250Z,35.30
2019-03-28T22:44:51.441Z,26.30
2019-03-28T22:45:51.293Z,20.20
2019-03-28T22:46:51.240Z,18.50
2019-03-28T22:47:51.221Z,20.40
2019-03-28T22:48:51.217Z,20.60
2019-03-28T22:49:51.242Z,21.10
2019-03-28T22:50:51.222Z,24.20
2019-03-28T22:51:51.217Z,23.80
2019-03-28T22:52:51.196Z,20.60
2019-03-28T22:53:51.211Z,24.20
2019-03-28T22:54:51.176Z,18.00
2019-03-28T22:55:51.174Z,21.00
2019-03-28T22:56:51.173Z,22.10
2019-03-28T22:57:53.930Z,19.60
2019-03-28T22:58:51.184Z,23.40
2019-03-28T22:59:51.156Z,19.50
2019-03-28T23:00:51.151Z,22.70
2019-03-28T23:01:51.142Z,19.10
2019-03-28T23:02:51.138Z,21.70
2019-03-28T23:03:51.133Z,20.80
2019-03-28T23:04:51.127Z,20.50
2019-03-28T23:05:51.120Z,16.90
2019-03-28T23:06:51.129Z,19.30
2019-03-28T23:07:51.119Z,22.20
2019-03-28T23:08:51.105Z,21.40
2019-03-28T23:09:51.095Z,22.00
2019-03-28T23:10:51.091Z,18.60
2019-03-28T23:11:51.086Z,21.40
2019-03-28T23:12:51.082Z,20.90
2019-03-28T23:13:51.075Z,23.50
2019-03-28T23:14:51.079Z,19.70
2019-03-28T23:15:51.065Z,20.60
2019-03-28T23:16:51.071Z,21.00
2019-03-28T23:17:51.078Z,18.30
2019-03-28T23:18:51.047Z,26.30
2019-03-28T23:19:51.053Z,22.20
2019-03-28T23:20:51.034Z,23.60
2019-03-28T23:21:51.031Z,23.40
2019-03-28T23:22:51.023Z,26.50
2019-03-28T23:23:51.157Z,25.20
2019-03-28T23:24:51.015Z,22.90
2019-03-28T23:25:51.077Z,21.90
2019-03-28T23:26:51.001Z,25.80
2019-03-28T23:27:50.995Z,24.00
2019-03-28T23:28:50.990Z,20.70
2019-03-28T23:29:50.982Z,21.60
2019-03-28T23:30:50.976Z,20.70
2019-03-28T23:31:50.990Z,23.60
2019-03-28T23:32:50.968Z,19.50
2019-03-28T23:33:50.962Z,20.90
2019-03-28T23:34:50.953Z,24.30
2019-03-28T23:35:50.947Z,24.90
2019-03-28T23:36:50.948Z,23.00
2019-03-28T23:37:50.937Z,24.30
2019-03-28T23:38:51.084Z,23.50
2019-03-28T23:39:50.925Z,27.00
2019-03-28T23:40:50.921Z,27.80
2019-03-28T23:41:50.914Z,28.00
2019-03-28T23:42:50.991Z,26.20
2019-03-28T23:43:50.939Z,30.10
2019-03-28T23:44:50.897Z,25.40
2019-03-28T23:45:50.889Z,23.30
2019-03-28T23:46:50.884Z,22.00
2019-03-28T23:47:50.880Z,23.20
2019-03-28T23:48:50.882Z,21.10
2019-03-28T23:49:50.866Z,25.20
2019-03-28T23:50:50.863Z,23.10
2019-03-28T23:51:50.867Z,33.00
2019-03-28T23:52:50.849Z,29.80
2019-03-28T23:53:50.845Z,26.20
2019-03-28T23:54:50.838Z,27.40
2019-03-28T23:55:50.833Z,23.70
2019-03-28T23:56:50.835Z,23.40
2019-03-28T23:57:50.826Z,23.40
2019-03-28T23:58:50.814Z,23.90
2019-03-28T23:59:50.810Z,23.60
